sensor_id;sensor_type;location;lat;lon;timestamp;P1;durP1;ratioP1;P2;durP2;ratioP2
26050;SDS011;13825;53.496;10.020;2023-04-06T00:01:51;4.90;;;3.27;;
26050;SDS011;13825;53.496;10.020;2023-04-06T00:04:19;4.63;;;3.03;;
26050;SDS011;13825;53.496;10.020;2023-04-06T00:06:47;5.23;;;3.30;;
26050;SDS011;13825;53.496;10.020;2023-04-06T00:09:15;5.80;;;3.00;;
26050;SDS011;13825;53.496;10.020;2023-04-06T00:11:43;5.87;;;3.30;;
26050;SDS011;13825;53.496;10.020;2023-04-06T00:14:10;4.63;;;3.40;;
26050;SDS011;13825;53.496;10.020;2023-04-06T00:16:40;4.70;;;2.93;;
26050;SDS011;13825;53.496;10.020;2023-04-06T00:19:07;4.80;;;3.23;;
26050;SDS011;13825;53.496;10.020;2023-04-06T00:21:35;4.27;;;2.90;;
26050;SDS011;13825;53.496;10.020;2023-04-06T00:24:03;4.13;;;3.30;;
26050;SDS011;13825;53.496;10.020;2023-04-06T00:26:30;4.13;;;2.80;;
26050;SDS011;13825;53.496;10.020;2023-04-06T00:28:58;5.50;;;2.70;;
26050;SDS011;13825;53.496;10.020;2023-04-06T00:31:26;6.37;;;3.53;;
26050;SDS011;13825;53.496;10.020;2023-04-06T00:33:58;4.40;;;2.90;;
26050;SDS011;13825;53.496;10.020;2023-04-06T00:36:28;4.47;;;3.40;;
26050;SDS011;13825;53.496;10.020;2023-04-06T00:38:59;4.50;;;2.87;;
26050;SDS011;13825;53.496;10.020;2023-04-06T00:41:27;5.70;;;3.27;;
26050;SDS011;13825;53.496;10.020;2023-04-06T00:43:54;3.90;;;3.03;;
26050;SDS011;13825;53.496;10.020;2023-04-06T00:46:22;7.73;;;3.50;;
26050;SDS011;13825;53.496;10.020;2023-04-06T00:48:54;4.70;;;2.90;;
26050;SDS011;13825;53.496;10.020;2023-04-06T00:51:24;4.47;;;3.53;;
26050;SDS011;13825;53.496;10.020;2023-04-06T00:53:52;6.57;;;3.33;;
26050;SDS011;13825;53.496;10.020;2023-04-06T00:56:20;4.50;;;3.27;;
26050;SDS011;13825;53.496;10.020;2023-04-06T00:58:48;7.27;;;3.57;;
26050;SDS011;13825;53.496;10.020;2023-04-06T01:01:17;4.43;;;2.70;;
26050;SDS011;13825;53.496;10.020;2023-04-06T01:03:44;5.97;;;3.13;;
26050;SDS011;13825;53.496;10.020;2023-04-06T01:06:14;3.23;;;2.87;;
26050;SDS011;13825;53.496;10.020;2023-04-06T01:08:42;4.77;;;3.13;;
26050;SDS011;13825;53.496;10.020;2023-04-06T01:11:10;3.67;;;2.80;;
26050;SDS011;13825;53.496;10.020;2023-04-06T01:13:39;7.00;;;3.47;;
26050;SDS011;13825;53.496;10.020;2023-04-06T01:16:08;5.10;;;3.20;;
26050;SDS011;13825;53.496;10.020;2023-04-06T01:18:37;5.90;;;3.60;;
26050;SDS011;13825;53.496;10.020;2023-04-06T01:21:04;9.03;;;3.47;;
26050;SDS011;13825;53.496;10.020;2023-04-06T01:23:35;6.93;;;3.60;;
26050;SDS011;13825;53.496;10.020;2023-04-06T01:26:02;6.63;;;3.37;;
26050;SDS011;13825;53.496;10.020;2023-04-06T01:28:30;5.47;;;3.37;;
26050;SDS011;13825;53.496;10.020;2023-04-06T01:30:57;5.60;;;2.90;;
26050;SDS011;13825;53.496;10.020;2023-04-06T01:33:25;4.80;;;3.43;;
26050;SDS011;13825;53.496;10.020;2023-04-06T01:35:52;4.00;;;3.17;;
26050;SDS011;13825;53.496;10.020;2023-04-06T01:38:20;6.70;;;3.10;;
26050;SDS011;13825;53.496;10.020;2023-04-06T01:40:49;4.83;;;3.40;;
26050;SDS011;13825;53.496;10.020;2023-04-06T01:43:17;8.10;;;3.37;;
26050;SDS011;13825;53.496;10.020;2023-04-06T01:45:44;5.70;;;3.50;;
26050;SDS011;13825;53.496;10.020;2023-04-06T01:48:12;5.37;;;3.40;;
26050;SDS011;13825;53.496;10.020;2023-04-06T01:50:39;5.00;;;2.80;;
26050;SDS011;13825;53.496;10.020;2023-04-06T01:53:07;6.60;;;3.27;;
26050;SDS011;13825;53.496;10.020;2023-04-06T01:55:34;5.10;;;3.37;;
26050;SDS011;13825;53.496;10.020;2023-04-06T01:58:03;7.60;;;3.73;;
26050;SDS011;13825;53.496;10.020;2023-04-06T02:00:31;5.07;;;3.33;;
26050;SDS011;13825;53.496;10.020;2023-04-06T02:02:58;4.27;;;3.10;;
26050;SDS011;13825;53.496;10.020;2023-04-06T02:05:26;4.77;;;3.20;;
26050;SDS011;13825;53.496;10.020;2023-04-06T02:07:54;5.53;;;2.77;;
26050;SDS011;13825;53.496;10.020;2023-04-06T02:10:21;5.40;;;3.20;;
26050;SDS011;13825;53.496;10.020;2023-04-06T02:12:49;3.27;;;2.90;;
26050;SDS011;13825;53.496;10.020;2023-04-06T02:15:18;4.27;;;2.87;;
26050;SDS011;13825;53.496;10.020;2023-04-06T02:17:45;5.60;;;3.10;;
26050;SDS011;13825;53.496;10.020;2023-04-06T02:20:12;5.23;;;3.40;;
26050;SDS011;13825;53.496;10.020;2023-04-06T02:22:39;7.50;;;4.10;;
26050;SDS011;13825;53.496;10.020;2023-04-06T02:25:07;5.37;;;3.30;;
26050;SDS011;13825;53.496;10.020;2023-04-06T02:27:34;6.60;;;3.23;;
26050;SDS011;13825;53.496;10.020;2023-04-06T02:30:01;4.97;;;3.23;;
26050;SDS011;13825;53.496;10.020;2023-04-06T02:32:30;7.50;;;3.27;;
26050;SDS011;13825;53.496;10.020;2023-04-06T02:34:58;6.30;;;3.47;;
26050;SDS011;13825;53.496;10.020;2023-04-06T02:37:25;5.60;;;3.10;;
26050;SDS011;13825;53.496;10.020;2023-04-06T02:39:52;4.70;;;2.97;;
26050;SDS011;13825;53.496;10.020;2023-04-06T02:42:19;4.77;;;3.43;;
26050;SDS011;13825;53.496;10.020;2023-04-06T02:44:46;4.20;;;3.40;;
26050;SDS011;13825;53.496;10.020;2023-04-06T02:47:14;5.83;;;3.30;;
26050;SDS011;13825;53.496;10.020;2023-04-06T02:49:42;6.23;;;3.40;;
26050;SDS011;13825;53.496;10.020;2023-04-06T02:52:09;6.63;;;3.63;;
26050;SDS011;13825;53.496;10.020;2023-04-06T02:54:36;5.63;;;3.03;;
26050;SDS011;13825;53.496;10.020;2023-04-06T02:57:03;5.03;;;3.33;;
26050;SDS011;13825;53.496;10.020;2023-04-06T02:59:31;4.80;;;3.23;;
26050;SDS011;13825;53.496;10.020;2023-04-06T03:01:58;7.23;;;3.53;;
26050;SDS011;13825;53.496;10.020;2023-04-06T03:04:25;6.30;;;3.27;;
26050;SDS011;13825;53.496;10.020;2023-04-06T03:06:54;5.87;;;3.67;;
26050;SDS011;13825;53.496;10.020;2023-04-06T03:09:21;6.10;;;3.97;;
26050;SDS011;13825;53.496;10.020;2023-04-06T03:11:48;6.07;;;4.20;;
26050;SDS011;13825;53.496;10.020;2023-04-06T03:14:15;5.70;;;4.10;;
26050;SDS011;13825;53.496;10.020;2023-04-06T03:16:46;5.33;;;4.03;;
26050;SDS011;13825;53.496;10.020;2023-04-06T03:19:14;5.90;;;3.67;;
26050;SDS011;13825;53.496;10.020;2023-04-06T03:21:41;7.47;;;4.87;;
26050;SDS011;13825;53.496;10.020;2023-04-06T03:24:10;7.43;;;4.30;;
26050;SDS011;13825;53.496;10.020;2023-04-06T03:26:40;7.57;;;4.50;;
26050;SDS011;13825;53.496;10.020;2023-04-06T03:29:08;8.53;;;4.80;;
26050;SDS011;13825;53.496;10.020;2023-04-06T03:31:35;7.63;;;5.10;;
26050;SDS011;13825;53.496;10.020;2023-04-06T03:34:03;7.47;;;4.27;;
26050;SDS011;13825;53.496;10.020;2023-04-06T03:36:30;6.63;;;4.63;;
26050;SDS011;13825;53.496;10.020;2023-04-06T03:38:57;6.07;;;4.47;;
26050;SDS011;13825;53.496;10.020;2023-04-06T03:41:26;8.47;;;4.97;;
26050;SDS011;13825;53.496;10.020;2023-04-06T03:43:53;7.13;;;4.53;;
26050;SDS011;13825;53.496;10.020;2023-04-06T03:46:20;8.40;;;4.83;;
26050;SDS011;13825;53.496;10.020;2023-04-06T03:48:48;10.63;;;5.20;;
26050;SDS011;13825;53.496;10.020;2023-04-06T03:51:15;9.40;;;5.40;;
26050;SDS011;13825;53.496;10.020;2023-04-06T03:53:42;9.57;;;4.80;;
26050;SDS011;13825;53.496;10.020;2023-04-06T03:56:09;6.93;;;5.13;;
26050;SDS011;13825;53.496;10.020;2023-04-06T03:58:41;9.77;;;5.13;;
26050;SDS011;13825;53.496;10.020;2023-04-06T04:01:09;6.00;;;4.90;;
26050;SDS011;13825;53.496;10.020;2023-04-06T04:03:36;7.70;;;5.30;;
26050;SDS011;13825;53.496;10.020;2023-04-06T04:06:03;8.43;;;5.53;;
26050;SDS011;13825;53.496;10.020;2023-04-06T04:08:30;6.77;;;4.90;;
26050;SDS011;13825;53.496;10.020;2023-04-06T04:10:58;9.47;;;5.67;;
26050;SDS011;13825;53.496;10.020;2023-04-06T04:16:30;7.50;;;5.07;;
26050;SDS011;13825;53.496;10.020;2023-04-06T04:19:42;9.37;;;5.20;;
26050;SDS011;13825;53.496;10.020;2023-04-06T04:25:57;8.90;;;5.00;;
26050;SDS011;13825;53.496;10.020;2023-04-06T04:28:24;7.97;;;5.40;;
26050;SDS011;13825;53.496;10.020;2023-04-06T04:30:53;8.20;;;5.43;;
26050;SDS011;13825;53.496;10.020;2023-04-06T04:33:21;7.30;;;4.90;;
26050;SDS011;13825;53.496;10.020;2023-04-06T04:35:51;7.70;;;5.30;;
26050;SDS011;13825;53.496;10.020;2023-04-06T04:38:18;8.67;;;5.60;;
26050;SDS011;13825;53.496;10.020;2023-04-06T04:40:45;9.73;;;6.03;;
26050;SDS011;13825;53.496;10.020;2023-04-06T04:43:15;9.73;;;5.63;;
26050;SDS011;13825;53.496;10.020;2023-04-06T04:45:43;8.70;;;5.70;;
26050;SDS011;13825;53.496;10.020;2023-04-06T04:48:12;12.57;;;5.73;;
26050;SDS011;13825;53.496;10.020;2023-04-06T04:50:40;8.10;;;5.33;;
26050;SDS011;13825;53.496;10.020;2023-04-06T04:53:08;9.77;;;5.70;;
26050;SDS011;13825;53.496;10.020;2023-04-06T04:55:35;9.40;;;5.07;;
26050;SDS011;13825;53.496;10.020;2023-04-06T04:58:02;7.23;;;5.30;;
26050;SDS011;13825;53.496;10.020;2023-04-06T05:00:29;9.17;;;5.67;;
26050;SDS011;13825;53.496;10.020;2023-04-06T05:02:57;9.00;;;5.20;;
26050;SDS011;13825;53.496;10.020;2023-04-06T05:05:26;9.63;;;5.83;;
26050;SDS011;13825;53.496;10.020;2023-04-06T05:07:53;8.17;;;5.67;;
26050;SDS011;13825;53.496;10.020;2023-04-06T05:10:20;8.50;;;5.50;;
26050;SDS011;13825;53.496;10.020;2023-04-06T05:12:47;9.07;;;5.67;;
26050;SDS011;13825;53.496;10.020;2023-04-06T05:15:14;9.27;;;5.17;;
26050;SDS011;13825;53.496;10.020;2023-04-06T05:17:41;7.10;;;5.37;;
26050;SDS011;13825;53.496;10.020;2023-04-06T05:20:09;7.67;;;5.60;;
26050;SDS011;13825;53.496;10.020;2023-04-06T05:22:38;8.50;;;5.30;;
26050;SDS011;13825;53.496;10.020;2023-04-06T05:25:05;8.57;;;5.20;;
26050;SDS011;13825;53.496;10.020;2023-04-06T05:27:33;9.50;;;5.23;;
26050;SDS011;13825;53.496;10.020;2023-04-06T05:30:01;8.60;;;5.33;;
26050;SDS011;13825;53.496;10.020;2023-04-06T05:32:28;9.33;;;5.90;;
26050;SDS011;13825;53.496;10.020;2023-04-06T05:34:59;12.40;;;6.17;;
26050;SDS011;13825;53.496;10.020;2023-04-06T05:37:26;8.23;;;5.47;;
26050;SDS011;13825;53.496;10.020;2023-04-06T05:39:55;8.23;;;5.50;;
26050;SDS011;13825;53.496;10.020;2023-04-06T05:42:22;6.70;;;5.03;;
26050;SDS011;13825;53.496;10.020;2023-04-06T05:44:50;8.17;;;5.77;;
26050;SDS011;13825;53.496;10.020;2023-04-06T05:47:21;9.53;;;6.37;;
26050;SDS011;13825;53.496;10.020;2023-04-06T05:49:48;9.97;;;5.70;;
26050;SDS011;13825;53.496;10.020;2023-04-06T05:52:15;7.87;;;5.20;;
26050;SDS011;13825;53.496;10.020;2023-04-06T05:54:42;8.80;;;5.40;;
26050;SDS011;13825;53.496;10.020;2023-04-06T05:57:11;8.40;;;5.60;;
26050;SDS011;13825;53.496;10.020;2023-04-06T05:59:38;10.43;;;5.97;;
26050;SDS011;13825;53.496;10.020;2023-04-06T06:02:05;8.43;;;5.47;;
26050;SDS011;13825;53.496;10.020;2023-04-06T06:04:34;8.70;;;5.40;;
26050;SDS011;13825;53.496;10.020;2023-04-06T06:07:01;8.93;;;5.67;;
26050;SDS011;13825;53.496;10.020;2023-04-06T06:09:29;7.60;;;5.67;;
26050;SDS011;13825;53.496;10.020;2023-04-06T06:12:03;10.77;;;5.80;;
26050;SDS011;13825;53.496;10.020;2023-04-06T06:14:32;12.73;;;5.90;;
26050;SDS011;13825;53.496;10.020;2023-04-06T06:16:59;14.50;;;6.07;;
26050;SDS011;13825;53.496;10.020;2023-04-06T06:19:26;10.10;;;6.67;;
26050;SDS011;13825;53.496;10.020;2023-04-06T06:21:56;10.33;;;6.50;;
26050;SDS011;13825;53.496;10.020;2023-04-06T06:24:25;10.03;;;6.40;;
26050;SDS011;13825;53.496;10.020;2023-04-06T06:26:52;12.37;;;6.87;;
26050;SDS011;13825;53.496;10.020;2023-04-06T06:29:19;12.30;;;7.03;;
26050;SDS011;13825;53.496;10.020;2023-04-06T06:31:47;12.43;;;6.50;;
26050;SDS011;13825;53.496;10.020;2023-04-06T06:34:16;10.83;;;7.53;;
26050;SDS011;13825;53.496;10.020;2023-04-06T06:36:43;12.13;;;6.00;;
26050;SDS011;13825;53.496;10.020;2023-04-06T06:39:10;10.40;;;7.23;;
26050;SDS011;13825;53.496;10.020;2023-04-06T06:41:37;10.87;;;6.90;;
26050;SDS011;13825;53.496;10.020;2023-04-06T06:44:05;12.27;;;7.50;;
26050;SDS011;13825;53.496;10.020;2023-04-06T06:46:32;12.47;;;6.37;;
26050;SDS011;13825;53.496;10.020;2023-04-06T06:49:00;10.43;;;6.73;;
26050;SDS011;13825;53.496;10.020;2023-04-06T06:51:28;10.57;;;6.33;;
26050;SDS011;13825;53.496;10.020;2023-04-06T06:53:55;12.40;;;7.13;;
26050;SDS011;13825;53.496;10.020;2023-04-06T06:56:22;10.73;;;7.73;;
26050;SDS011;13825;53.496;10.020;2023-04-06T06:58:49;11.70;;;7.03;;
26050;SDS011;13825;53.496;10.020;2023-04-06T07:01:16;10.97;;;6.57;;
26050;SDS011;13825;53.496;10.020;2023-04-06T07:03:43;9.17;;;6.20;;
26050;SDS011;13825;53.496;10.020;2023-04-06T07:06:12;12.10;;;6.87;;
26050;SDS011;13825;53.496;10.020;2023-04-06T07:08:39;8.47;;;6.20;;
26050;SDS011;13825;53.496;10.020;2023-04-06T07:11:06;9.37;;;5.87;;
26050;SDS011;13825;53.496;10.020;2023-04-06T07:13:33;8.90;;;6.17;;
26050;SDS011;13825;53.496;10.020;2023-04-06T07:16:00;9.53;;;6.30;;
26050;SDS011;13825;53.496;10.020;2023-04-06T07:18:28;9.67;;;7.07;;
26050;SDS011;13825;53.496;10.020;2023-04-06T07:20:55;9.97;;;6.53;;
26050;SDS011;13825;53.496;10.020;2023-04-06T07:23:25;9.63;;;5.90;;
26050;SDS011;13825;53.496;10.020;2023-04-06T07:25:53;9.90;;;6.13;;
26050;SDS011;13825;53.496;10.020;2023-04-06T07:28:22;9.80;;;6.00;;
26050;SDS011;13825;53.496;10.020;2023-04-06T07:30:50;9.80;;;6.23;;
26050;SDS011;13825;53.496;10.020;2023-04-06T07:33:19;8.10;;;5.60;;
26050;SDS011;13825;53.496;10.020;2023-04-06T07:35:47;8.97;;;5.90;;
26050;SDS011;13825;53.496;10.020;2023-04-06T07:38:20;13.63;;;6.03;;
26050;SDS011;13825;53.496;10.020;2023-04-06T07:40:49;9.80;;;5.50;;
26050;SDS011;13825;53.496;10.020;2023-04-06T07:43:18;9.17;;;5.60;;
26050;SDS011;13825;53.496;10.020;2023-04-06T07:45:47;8.83;;;5.83;;
26050;SDS011;13825;53.496;10.020;2023-04-06T07:48:25;10.20;;;5.77;;
26050;SDS011;13825;53.496;10.020;2023-04-06T07:51:03;8.73;;;6.00;;
26050;SDS011;13825;53.496;10.020;2023-04-06T07:54:04;6.97;;;5.73;;
26050;SDS011;13825;53.496;10.020;2023-04-06T07:56:35;8.47;;;5.70;;
26050;SDS011;13825;53.496;10.020;2023-04-06T07:59:49;8.50;;;5.07;;
26050;SDS011;13825;53.496;10.020;2023-04-06T08:05:03;8.07;;;5.33;;
26050;SDS011;13825;53.496;10.020;2023-04-06T08:06:08;8.37;;;5.07;;
26050;SDS011;13825;53.496;10.020;2023-04-06T08:12:00;7.10;;;5.13;;
26050;SDS011;13825;53.496;10.020;2023-04-06T08:14:33;10.97;;;5.00;;
26050;SDS011;13825;53.496;10.020;2023-04-06T08:17:04;6.77;;;4.70;;
26050;SDS011;13825;53.496;10.020;2023-04-06T08:20:22;8.73;;;4.93;;
26050;SDS011;13825;53.496;10.020;2023-04-06T08:23:11;5.50;;;3.87;;
26050;SDS011;13825;53.496;10.020;2023-04-06T08:29:06;6.87;;;4.57;;
26050;SDS011;13825;53.496;10.020;2023-04-06T08:32:01;8.17;;;4.70;;
26050;SDS011;13825;53.496;10.020;2023-04-06T08:35:11;8.10;;;4.77;;
26050;SDS011;13825;53.496;10.020;2023-04-06T08:38:01;6.63;;;4.20;;
26050;SDS011;13825;53.496;10.020;2023-04-06T08:41:36;6.67;;;4.90;;
26050;SDS011;13825;53.496;10.020;2023-04-06T08:48:23;8.47;;;4.33;;
26050;SDS011;13825;53.496;10.020;2023-04-06T08:52:32;7.80;;;5.23;;
26050;SDS011;13825;53.496;10.020;2023-04-06T08:58:17;8.03;;;5.20;;
26050;SDS011;13825;53.496;10.020;2023-04-06T15:02:31;7.73;;;5.43;;
26050;SDS011;13825;53.496;10.020;2023-04-06T15:05:19;5.77;;;4.47;;
26050;SDS011;13825;53.496;10.020;2023-04-06T15:44:23;6.50;;;4.67;;
26050;SDS011;13825;53.496;10.020;2023-04-06T15:46:51;6.53;;;4.87;;
26050;SDS011;13825;53.496;10.020;2023-04-06T15:49:22;6.77;;;4.97;;
26050;SDS011;13825;53.496;10.020;2023-04-06T15:52:04;5.83;;;4.67;;
26050;SDS011;13825;53.496;10.020;2023-04-06T15:54:38;5.83;;;4.83;;
26050;SDS011;13825;53.496;10.020;2023-04-06T15:57:17;6.00;;;4.83;;
26050;SDS011;13825;53.496;10.020;2023-04-06T15:59:54;7.37;;;4.77;;
26050;SDS011;13825;53.496;10.020;2023-04-06T16:03:18;6.93;;;4.90;;
26050;SDS011;13825;53.496;10.020;2023-04-06T16:05:48;6.67;;;5.00;;
26050;SDS011;13825;53.496;10.020;2023-04-06T16:08:15;6.17;;;5.13;;
26050;SDS011;13825;53.496;10.020;2023-04-06T16:10:43;9.17;;;5.00;;
26050;SDS011;13825;53.496;10.020;2023-04-06T16:13:11;7.17;;;4.87;;
26050;SDS011;13825;53.496;10.020;2023-04-06T16:15:40;6.67;;;4.93;;
26050;SDS011;13825;53.496;10.020;2023-04-06T16:18:07;7.20;;;4.80;;
26050;SDS011;13825;53.496;10.020;2023-04-06T16:20:35;6.37;;;4.80;;
26050;SDS011;13825;53.496;10.020;2023-04-06T16:23:02;6.30;;;4.63;;
26050;SDS011;13825;53.496;10.020;2023-04-06T16:25:30;5.67;;;4.87;;
26050;SDS011;13825;53.496;10.020;2023-04-06T16:28:01;6.50;;;5.30;;
26050;SDS011;13825;53.496;10.020;2023-04-06T16:30:28;6.10;;;5.00;;
26050;SDS011;13825;53.496;10.020;2023-04-06T16:32:57;7.33;;;5.00;;
26050;SDS011;13825;53.496;10.020;2023-04-06T16:35:24;6.27;;;4.83;;
26050;SDS011;13825;53.496;10.020;2023-04-06T16:37:51;6.20;;;4.97;;
26050;SDS011;13825;53.496;10.020;2023-04-06T16:40:20;7.03;;;5.10;;
26050;SDS011;13825;53.496;10.020;2023-04-06T16:42:50;6.10;;;4.87;;
26050;SDS011;13825;53.496;10.020;2023-04-06T16:45:22;7.77;;;5.60;;
26050;SDS011;13825;53.496;10.020;2023-04-06T16:47:49;6.77;;;5.10;;
26050;SDS011;13825;53.496;10.020;2023-04-06T16:50:21;6.67;;;4.83;;
26050;SDS011;13825;53.496;10.020;2023-04-06T16:52:52;10.93;;;5.43;;
26050;SDS011;13825;53.496;10.020;2023-04-06T16:55:20;7.30;;;5.47;;
26050;SDS011;13825;53.496;10.020;2023-04-06T16:57:47;7.40;;;5.40;;
26050;SDS011;13825;53.496;10.020;2023-04-06T17:00:15;8.40;;;5.40;;
26050;SDS011;13825;53.496;10.020;2023-04-06T17:02:45;6.83;;;5.27;;
26050;SDS011;13825;53.496;10.020;2023-04-06T17:05:21;7.63;;;5.40;;
26050;SDS011;13825;53.496;10.020;2023-04-06T17:07:50;6.83;;;5.60;;
26050;SDS011;13825;53.496;10.020;2023-04-06T17:10:18;11.43;;;5.90;;
26050;SDS011;13825;53.496;10.020;2023-04-06T17:12:45;7.57;;;5.03;;
26050;SDS011;13825;53.496;10.020;2023-04-06T17:15:24;6.10;;;5.00;;
26050;SDS011;13825;53.496;10.020;2023-04-06T17:17:58;8.17;;;5.80;;
26050;SDS011;13825;53.496;10.020;2023-04-06T17:20:42;9.23;;;5.30;;
26050;SDS011;13825;53.496;10.020;2023-04-06T17:23:13;6.63;;;5.20;;
26050;SDS011;13825;53.496;10.020;2023-04-06T17:25:41;5.57;;;4.70;;
26050;SDS011;13825;53.496;10.020;2023-04-06T17:28:08;6.80;;;5.17;;
26050;SDS011;13825;53.496;10.020;2023-04-06T17:30:36;6.87;;;5.63;;
26050;SDS011;13825;53.496;10.020;2023-04-06T17:33:03;7.23;;;5.30;;
26050;SDS011;13825;53.496;10.020;2023-04-06T17:35:30;9.83;;;5.20;;
26050;SDS011;13825;53.496;10.020;2023-04-06T17:38:07;7.67;;;5.50;;
26050;SDS011;13825;53.496;10.020;2023-04-06T17:40:34;7.07;;;5.27;;
26050;SDS011;13825;53.496;10.020;2023-04-06T17:43:09;8.47;;;5.40;;
26050;SDS011;13825;53.496;10.020;2023-04-06T17:45:37;7.27;;;5.10;;
26050;SDS011;13825;53.496;10.020;2023-04-06T17:48:04;7.93;;;5.73;;
26050;SDS011;13825;53.496;10.020;2023-04-06T17:50:32;8.60;;;5.63;;
26050;SDS011;13825;53.496;10.020;2023-04-06T17:53:02;8.20;;;5.30;;
26050;SDS011;13825;53.496;10.020;2023-04-06T17:55:35;9.70;;;5.87;;
26050;SDS011;13825;53.496;10.020;2023-04-06T17:58:05;9.00;;;5.60;;
26050;SDS011;13825;53.496;10.020;2023-04-06T18:00:35;9.37;;;5.33;;
26050;SDS011;13825;53.496;10.020;2023-04-06T18:03:05;8.87;;;5.63;;
26050;SDS011;13825;53.496;10.020;2023-04-06T18:05:34;8.63;;;6.10;;
26050;SDS011;13825;53.496;10.020;2023-04-06T18:08:06;9.40;;;5.20;;
26050;SDS011;13825;53.496;10.020;2023-04-06T18:10:36;7.47;;;5.33;;
26050;SDS011;13825;53.496;10.020;2023-04-06T18:13:04;6.93;;;5.07;;
26050;SDS011;13825;53.496;10.020;2023-04-06T18:15:33;11.27;;;6.20;;
26050;SDS011;13825;53.496;10.020;2023-04-06T18:18:00;9.03;;;6.30;;
26050;SDS011;13825;53.496;10.020;2023-04-06T18:20:27;9.13;;;6.80;;
26050;SDS011;13825;53.496;10.020;2023-04-06T18:22:55;10.87;;;8.47;;
26050;SDS011;13825;53.496;10.020;2023-04-06T18:25:23;10.27;;;7.57;;
26050;SDS011;13825;53.496;10.020;2023-04-06T18:27:51;12.33;;;7.90;;
26050;SDS011;13825;53.496;10.020;2023-04-06T18:30:18;10.63;;;7.50;;
26050;SDS011;13825;53.496;10.020;2023-04-06T18:32:46;11.53;;;7.63;;
26050;SDS011;13825;53.496;10.020;2023-04-06T18:35:13;13.33;;;7.70;;
26050;SDS011;13825;53.496;10.020;2023-04-06T18:37:40;13.00;;;8.37;;
26050;SDS011;13825;53.496;10.020;2023-04-06T18:40:08;10.60;;;8.57;;
26050;SDS011;13825;53.496;10.020;2023-04-06T18:42:58;14.73;;;9.60;;
26050;SDS011;13825;53.496;10.020;2023-04-06T18:45:25;12.00;;;8.40;;
26050;SDS011;13825;53.496;10.020;2023-04-06T18:47:53;10.40;;;6.67;;
26050;SDS011;13825;53.496;10.020;2023-04-06T18:50:20;9.73;;;6.30;;
26050;SDS011;13825;53.496;10.020;2023-04-06T18:52:49;10.10;;;6.30;;
26050;SDS011;13825;53.496;10.020;2023-04-06T18:55:17;11.50;;;6.50;;
26050;SDS011;13825;53.496;10.020;2023-04-06T18:57:44;7.43;;;5.43;;
26050;SDS011;13825;53.496;10.020;2023-04-06T19:00:14;9.77;;;5.77;;
26050;SDS011;13825;53.496;10.020;2023-04-06T19:02:42;10.60;;;6.10;;
26050;SDS011;13825;53.496;10.020;2023-04-06T19:05:09;9.97;;;6.57;;
26050;SDS011;13825;53.496;10.020;2023-04-06T19:07:36;10.10;;;6.00;;
26050;SDS011;13825;53.496;10.020;2023-04-06T19:10:04;13.03;;;6.90;;
26050;SDS011;13825;53.496;10.020;2023-04-06T19:12:32;11.93;;;7.47;;
26050;SDS011;13825;53.496;10.020;2023-04-06T19:14:59;13.43;;;7.10;;
26050;SDS011;13825;53.496;10.020;2023-04-06T19:17:28;14.47;;;7.20;;
26050;SDS011;13825;53.496;10.020;2023-04-06T19:19:56;11.53;;;6.97;;
26050;SDS011;13825;53.496;10.020;2023-04-06T19:22:23;11.90;;;7.40;;
26050;SDS011;13825;53.496;10.020;2023-04-06T19:24:50;15.17;;;7.63;;
26050;SDS011;13825;53.496;10.020;2023-04-06T19:27:18;10.03;;;7.07;;
26050;SDS011;13825;53.496;10.020;2023-04-06T19:29:45;12.27;;;7.87;;
26050;SDS011;13825;53.496;10.020;2023-04-06T19:32:12;11.43;;;7.47;;
26050;SDS011;13825;53.496;10.020;2023-04-06T19:34:41;10.80;;;7.37;;
26050;SDS011;13825;53.496;10.020;2023-04-06T19:37:08;14.10;;;6.67;;
26050;SDS011;13825;53.496;10.020;2023-04-06T19:39:35;12.83;;;7.47;;
26050;SDS011;13825;53.496;10.020;2023-04-06T19:42:04;14.80;;;7.40;;
26050;SDS011;13825;53.496;10.020;2023-04-06T19:44:31;13.47;;;8.07;;
26050;SDS011;13825;53.496;10.020;2023-04-06T19:46:58;11.33;;;7.20;;
26050;SDS011;13825;53.496;10.020;2023-04-06T19:49:25;12.97;;;7.47;;
26050;SDS011;13825;53.496;10.020;2023-04-06T19:51:54;13.57;;;8.10;;
26050;SDS011;13825;53.496;10.020;2023-04-06T19:54:22;12.27;;;7.23;;
26050;SDS011;13825;53.496;10.020;2023-04-06T19:56:49;12.53;;;7.37;;
26050;SDS011;13825;53.496;10.020;2023-04-06T19:59:16;10.67;;;6.97;;
26050;SDS011;13825;53.496;10.020;2023-04-06T20:01:45;11.00;;;6.73;;
26050;SDS011;13825;53.496;10.020;2023-04-06T20:04:12;15.53;;;7.40;;
26050;SDS011;13825;53.496;10.020;2023-04-06T20:06:40;12.00;;;7.13;;
26050;SDS011;13825;53.496;10.020;2023-04-06T20:09:09;11.07;;;7.30;;
26050;SDS011;13825;53.496;10.020;2023-04-06T20:11:39;11.80;;;6.97;;
26050;SDS011;13825;53.496;10.020;2023-04-06T20:14:07;14.23;;;7.77;;
26050;SDS011;13825;53.496;10.020;2023-04-06T20:16:34;11.17;;;6.53;;
26050;SDS011;13825;53.496;10.020;2023-04-06T20:19:01;11.90;;;6.67;;
26050;SDS011;13825;53.496;10.020;2023-04-06T20:21:29;14.50;;;7.33;;
26050;SDS011;13825;53.496;10.020;2023-04-06T20:23:56;11.50;;;6.77;;
26050;SDS011;13825;53.496;10.020;2023-04-06T20:26:25;11.83;;;6.90;;
26050;SDS011;13825;53.496;10.020;2023-04-06T20:28:52;12.97;;;7.63;;
26050;SDS011;13825;53.496;10.020;2023-04-06T20:31:19;12.47;;;7.33;;
26050;SDS011;13825;53.496;10.020;2023-04-06T20:33:47;13.30;;;7.30;;
26050;SDS011;13825;53.496;10.020;2023-04-06T20:36:14;11.70;;;6.80;;
26050;SDS011;13825;53.496;10.020;2023-04-06T20:38:42;10.97;;;7.23;;
26050;SDS011;13825;53.496;10.020;2023-04-06T20:41:09;11.87;;;7.30;;
26050;SDS011;13825;53.496;10.020;2023-04-06T20:43:38;10.73;;;7.37;;
26050;SDS011;13825;53.496;10.020;2023-04-06T20:46:05;10.37;;;6.87;;
26050;SDS011;13825;53.496;10.020;2023-04-06T20:48:33;12.73;;;7.50;;
26050;SDS011;13825;53.496;10.020;2023-04-06T20:51:02;13.00;;;8.07;;
26050;SDS011;13825;53.496;10.020;2023-04-06T20:53:29;11.20;;;7.40;;
26050;SDS011;13825;53.496;10.020;2023-04-06T20:55:57;11.43;;;7.30;;
26050;SDS011;13825;53.496;10.020;2023-04-06T20:58:24;13.17;;;7.97;;
26050;SDS011;13825;53.496;10.020;2023-04-06T21:00:53;12.80;;;7.27;;
26050;SDS011;13825;53.496;10.020;2023-04-06T21:03:20;12.53;;;7.30;;
26050;SDS011;13825;53.496;10.020;2023-04-06T21:05:50;12.40;;;7.10;;
26050;SDS011;13825;53.496;10.020;2023-04-06T21:08:18;13.30;;;7.27;;
26050;SDS011;13825;53.496;10.020;2023-04-06T21:10:45;10.17;;;6.70;;
26050;SDS011;13825;53.496;10.020;2023-04-06T21:13:12;10.40;;;6.43;;
26050;SDS011;13825;53.496;10.020;2023-04-06T21:15:40;11.60;;;6.27;;
26050;SDS011;13825;53.496;10.020;2023-04-06T21:18:09;10.23;;;6.63;;
26050;SDS011;13825;53.496;10.020;2023-04-06T21:20:36;12.20;;;7.03;;
26050;SDS011;13825;53.496;10.020;2023-04-06T21:23:04;12.50;;;7.50;;
26050;SDS011;13825;53.496;10.020;2023-04-06T21:25:31;11.07;;;7.00;;
26050;SDS011;13825;53.496;10.020;2023-04-06T21:27:58;13.07;;;7.57;;
26050;SDS011;13825;53.496;10.020;2023-04-06T21:30:26;12.83;;;7.43;;
26050;SDS011;13825;53.496;10.020;2023-04-06T21:32:53;12.57;;;7.07;;
26050;SDS011;13825;53.496;10.020;2023-04-06T21:35:22;11.73;;;7.33;;
26050;SDS011;13825;53.496;10.020;2023-04-06T21:37:49;15.07;;;7.77;;
26050;SDS011;13825;53.496;10.020;2023-04-06T21:40:16;11.73;;;7.60;;
26050;SDS011;13825;53.496;10.020;2023-04-06T21:42:44;10.43;;;7.60;;
26050;SDS011;13825;53.496;10.020;2023-04-06T21:45:12;13.77;;;7.13;;
26050;SDS011;13825;53.496;10.020;2023-04-06T21:47:39;12.50;;;7.23;;